Shell Point, Louisiana
Current Conditions -  °F | °C
As of 6:35 PM on Wednesday 22 Oct 2014 (Local Time) from KIER Reporting Station
Clear Clear  
Wind Chill: 70°   Ceiling: Unl
Heat Index: 70°   Visibility: 10mi
Dew Point: 53°   Wind: 5mph
Humidity: 55%   Direction: 60°ENE
Pressure: 30.09"   Gusts: NA
Location:  31.6668°N, 92.8023°W
Report Text: KIER 222335Z AUTO 06004KT 10SM CLR 21/12 A3009 RMK AO2 T02110118
Loading
Personal Weather Stations






























Interactive Weather Map
Tropical Storm Tracking
New forecast layout! Learn more

10-Day Weather Forecast

Advertisements
Track Severe Weather on mobile